Time;durP1;ratioP1;P1;durP2;ratioP2;P2;SDS_P1;SDS_P2;PMS_P1;PMS_P2;Temp;Humidity;BMP_temperature;BMP_pressure;BME280_temperature;BME280_humidity;BME280_pressure;Samples;Min_cycle;Max_cycle;Signal;HPM_P1;HPM_P2
2022/03/15 00:00:20;;;;;;;14.65;8.52;;;23.30;39.00;;;;;;6158721;28;81414;-67
2022/03/15 00:03:21;;;;;;;13.77;7.75;;;23.30;38.50;;;;;;6158606;28;80694;-67
2022/03/15 00:06:21;;;;;;;12.68;7.25;;;23.30;38.50;;;;;;6144738;28;81247;-67
2022/03/15 00:09:22;;;;;;;15.65;8.35;;;23.30;38.60;;;;;;6150315;28;80239;-67
2022/03/15 00:12:24;;;;;;;13.02;8.05;;;23.30;38.00;;;;;;6160670;28;81263;-67
2022/03/15 00:15:24;;;;;;;13.27;8.18;;;23.30;38.00;;;;;;6161195;28;87067;-68
2022/03/15 00:18:27;;;;;;;13.90;7.70;;;23.30;38.30;;;;;;6138365;28;80300;-68
2022/03/15 00:21:28;;;;;;;13.32;7.28;;;23.30;38.40;;;;;;6142748;28;80325;-67
2022/03/15 00:24:29;;;;;;;13.70;8.00;;;23.30;38.70;;;;;;6161167;28;80498;-67
2022/03/15 00:27:29;;;;;;;14.77;8.00;;;23.20;38.30;;;;;;6158490;28;85110;-67
2022/03/15 00:30:30;;;;;;;11.68;7.25;;;23.20;38.50;;;;;;6160938;28;81859;-68
2022/03/15 00:33:30;;;;;;;20.65;7.15;;;23.20;38.20;;;;;;6159321;28;80583;-68
2022/03/15 00:36:34;;;;;;;18.48;8.10;;;23.30;38.70;;;;;;6161065;28;80346;-67
2022/03/15 00:39:35;;;;;;;12.60;8.25;;;23.20;38.50;;;;;;6141008;28;81396;-67
2022/03/15 00:42:35;;;;;;;12.98;7.43;;;23.30;39.00;;;;;;6136972;28;80478;-66
2022/03/15 00:45:37;;;;;;;13.68;6.93;;;23.20;39.30;;;;;;6143468;28;82165;-67
2022/03/15 00:48:39;;;;;;;13.63;8.23;;;23.20;38.40;;;;;;6158619;28;83001;-67
2022/03/15 00:51:40;;;;;;;11.65;7.57;;;23.20;38.50;;;;;;6160460;28;80611;-67
2022/03/15 00:54:41;;;;;;;14.43;8.00;;;23.20;38.00;;;;;;6160643;28;80522;-67
2022/03/15 00:57:42;;;;;;;12.07;6.75;;;23.20;38.00;;;;;;6159859;28;80478;-67
2022/03/15 01:00:48;;;;;;;12.10;7.47;;;23.20;38.10;;;;;;6152858;28;83255;-67
2022/03/15 01:03:49;;;;;;;11.73;7.13;;;23.20;38.00;;;;;;6159720;28;85945;-66
2022/03/15 01:06:50;;;;;;;11.55;7.15;;;23.20;38.50;;;;;;6156723;28;83187;-67
2022/03/15 01:09:50;;;;;;;9.98;6.45;;;23.20;37.70;;;;;;6157778;28;83143;-67
2022/03/15 01:12:51;;;;;;;12.68;7.20;;;23.20;38.70;;;;;;6159881;28;80612;-67
2022/03/15 01:15:51;;;;;;;12.00;6.95;;;23.20;37.70;;;;;;6137051;28;82022;-68
2022/03/15 01:18:52;;;;;;;11.65;7.13;;;23.20;37.50;;;;;;6133972;28;83430;-68
2022/03/15 01:21:52;;;;;;;12.02;7.00;;;23.20;37.00;;;;;;6153726;28;80470;-68
2022/03/15 01:24:54;;;;;;;16.05;7.60;;;23.20;36.70;;;;;;6157456;28;83019;-67
2022/03/15 01:27:55;;;;;;;11.90;6.72;;;23.20;37.00;;;;;;6153781;28;81018;-68
2022/03/15 01:30:56;;;;;;;9.65;5.90;;;23.20;36.40;;;;;;6136207;28;81009;-68
2022/03/15 01:33:57;;;;;;;13.32;7.03;;;23.20;36.20;;;;;;6134186;28;82755;-67
2022/03/15 01:36:58;;;;;;;11.45;6.60;;;23.20;36.30;;;;;;6145089;28;80482;-67
2022/03/15 01:39:59;;;;;;;11.20;6.50;;;23.20;36.30;;;;;;6157753;28;82368;-67
2022/03/15 01:42:59;;;;;;;10.32;6.30;;;23.20;36.30;;;;;;6150099;28;81846;-67
2022/03/15 01:46:00;;;;;;;10.00;6.45;;;23.20;36.30;;;;;;6151704;28;82450;-68
2022/03/15 01:49:01;;;;;;;10.55;6.72;;;23.20;36.00;;;;;;6151909;28;83042;-67
2022/03/15 01:52:01;;;;;;;10.40;6.30;;;23.20;36.20;;;;;;6143870;28;81656;-67
2022/03/15 01:55:04;;;;;;;10.50;6.10;;;23.20;36.30;;;;;;6157052;28;82809;-67
2022/03/15 01:58:05;;;;;;;10.23;6.28;;;23.20;36.10;;;;;;6150002;28;80229;-67
2022/03/15 02:01:06;;;;;;;9.43;6.13;;;23.10;36.60;;;;;;6133811;28;83414;-67
2022/03/15 02:04:06;;;;;;;10.65;6.60;;;23.20;36.80;;;;;;6147691;28;80910;-67
2022/03/15 02:07:07;;;;;;;8.55;5.80;;;23.20;36.80;;;;;;6158284;28;80791;-67
2022/03/15 02:10:07;;;;;;;12.43;6.78;;;23.20;36.80;;;;;;6146121;28;82259;-67
2022/03/15 02:13:08;;;;;;;11.55;6.55;;;23.20;36.40;;;;;;6144156;28;80450;-67
2022/03/15 02:16:08;;;;;;;8.30;5.35;;;23.20;36.80;;;;;;6151485;28;81282;-67
2022/03/15 02:19:09;;;;;;;9.10;5.95;;;23.10;36.60;;;;;;6135896;28;81576;-68
2022/03/15 02:22:10;;;;;;;11.60;6.45;;;23.20;36.30;;;;;;6133857;28;81652;-67
2022/03/15 02:25:10;;;;;;;10.00;6.13;;;23.20;36.50;;;;;;6154375;28;80764;-67
2022/03/15 02:28:11;;;;;;;11.15;6.15;;;23.20;36.40;;;;;;6157602;28;80693;-68
2022/03/15 02:31:11;;;;;;;9.38;5.82;;;23.20;36.20;;;;;;6135891;28;80400;-67
2022/03/15 02:34:12;;;;;;;8.60;5.72;;;23.10;36.10;;;;;;6137270;28;80481;-67
2022/03/15 02:37:12;;;;;;;7.85;5.43;;;23.10;36.50;;;;;;6158808;28;81299;-67
2022/03/15 02:40:13;;;;;;;8.88;5.60;;;23.10;36.60;;;;;;6158182;28;80624;-67
2022/03/15 02:43:15;;;;;;;9.63;5.85;;;23.10;36.70;;;;;;6158602;28;80462;-67
2022/03/15 02:46:15;;;;;;;9.20;5.30;;;23.10;36.70;;;;;;6158243;28;80621;-68
2022/03/15 02:49:16;;;;;;;9.02;5.30;;;23.10;37.10;;;;;;6158449;28;80444;-67
2022/03/15 02:52:17;;;;;;;9.30;5.65;;;23.10;36.70;;;;;;6153022;28;80552;-67
2022/03/15 02:55:18;;;;;;;9.38;4.80;;;23.10;36.90;;;;;;6139503;28;80599;-67
2022/03/15 02:58:21;;;;;;;8.55;5.50;;;23.10;36.50;;;;;;6157308;28;86034;-66
2022/03/15 03:01:21;;;;;;;9.02;5.10;;;23.20;36.40;;;;;;6158002;28;81661;-67
2022/03/15 03:04:22;;;;;;;14.02;5.35;;;23.20;36.40;;;;;;6134568;28;81013;-67
2022/03/15 03:07:24;;;;;;;9.18;4.88;;;23.20;36.10;;;;;;6141156;28;80467;-66
2022/03/15 03:10:24;;;;;;;8.45;5.18;;;23.10;36.10;;;;;;6157947;28;80568;-66
2022/03/15 03:13:26;;;;;;;8.30;5.32;;;23.10;36.10;;;;;;6143759;28;80429;-67
2022/03/15 03:16:29;;;;;;;9.05;5.43;;;23.20;36.00;;;;;;6132121;28;83565;-67
2022/03/15 03:19:29;;;;;;;8.18;5.05;;;23.10;36.00;;;;;;6155586;28;80693;-67
2022/03/15 03:22:30;;;;;;;8.68;5.30;;;23.10;36.20;;;;;;6152687;28;81905;-67
2022/03/15 03:25:31;;;;;;;8.90;4.90;;;23.10;36.10;;;;;;6153404;28;81669;-67
2022/03/15 03:28:38;;;;;;;9.00;5.43;;;23.20;36.70;;;;;;6157426;28;80940;-68
2022/03/15 03:31:40;;;;;;;8.10;5.07;;;23.20;35.80;;;;;;6158184;28;80192;-68
2022/03/15 03:34:40;;;;;;;16.45;6.72;;;23.20;35.90;;;;;;6160775;28;80521;-67
2022/03/15 03:37:41;;;;;;;11.82;5.63;;;23.20;36.20;;;;;;6157750;28;80922;-67
2022/03/15 03:40:41;;;;;;;8.50;4.90;;;23.20;36.30;;;;;;6156786;28;80608;-67
2022/03/15 03:43:42;;;;;;;8.25;5.70;;;23.20;36.10;;;;;;6149929;28;80354;-66
2022/03/15 03:46:42;;;;;;;8.30;5.65;;;23.10;35.90;;;;;;6161813;28;80341;-67
2022/03/15 03:49:43;;;;;;;8.40;5.10;;;23.10;35.90;;;;;;6155383;28;81350;-68
2022/03/15 03:52:43;;;;;;;8.50;5.32;;;23.10;35.60;;;;;;6143065;28;80726;-67
2022/03/15 03:55:44;;;;;;;6.90;4.68;;;23.10;35.80;;;;;;6147812;28;80514;-67
2022/03/15 03:58:44;;;;;;;8.77;5.40;;;23.10;35.60;;;;;;6158908;28;80506;-67
2022/03/15 04:01:45;;;;;;;7.22;4.63;;;23.10;35.70;;;;;;6151019;28;81224;-68
2022/03/15 04:04:47;;;;;;;7.22;4.95;;;23.10;35.60;;;;;;6157192;28;80523;-67
2022/03/15 04:07:47;;;;;;;8.57;4.82;;;23.10;35.50;;;;;;6158611;28;80401;-67
2022/03/15 04:10:48;;;;;;;9.52;5.53;;;23.10;34.90;;;;;;6157292;28;80922;-68
2022/03/15 04:13:49;;;;;;;9.30;5.78;;;23.10;35.20;;;;;;6155772;28;80657;-68
2022/03/15 04:16:51;;;;;;;9.77;5.18;;;23.10;34.50;;;;;;6136746;28;81343;-68
2022/03/15 04:19:51;;;;;;;7.70;5.10;;;23.20;34.60;;;;;;6148983;28;80273;-67
2022/03/15 04:22:52;;;;;;;6.93;4.72;;;23.20;34.50;;;;;;6159172;28;80817;-67
2022/03/15 04:25:53;;;;;;;8.02;5.40;;;23.30;34.40;;;;;;6139088;28;80477;-68
2022/03/15 04:28:53;;;;;;;8.85;5.72;;;23.40;34.10;;;;;;6157160;28;80522;-68
2022/03/15 04:31:54;;;;;;;9.02;5.80;;;23.40;33.90;;;;;;6144341;28;80083;-68
2022/03/15 04:34:57;;;;;;;9.73;5.68;;;23.40;33.90;;;;;;6143764;28;81478;-68
2022/03/15 04:37:57;;;;;;;6.43;4.85;;;23.50;34.10;;;;;;6142198;28;81135;-68
2022/03/15 04:40:59;;;;;;;5.85;4.30;;;23.50;34.20;;;;;;6135845;28;81513;-68
2022/03/15 04:44:00;;;;;;;10.23;5.43;;;23.60;34.30;;;;;;6135861;28;80494;-68
2022/03/15 04:47:00;;;;;;;9.32;4.65;;;23.60;34.30;;;;;;6151288;28;80678;-70
2022/03/15 04:50:01;;;;;;;6.70;4.60;;;23.60;34.90;;;;;;6139508;28;80518;-67
2022/03/15 04:53:01;;;;;;;7.20;4.72;;;23.70;35.20;;;;;;6146662;28;80827;-68
2022/03/15 04:56:02;;;;;;;6.22;4.28;;;23.70;36.20;;;;;;6153849;28;80372;-70
2022/03/15 04:59:02;;;;;;;7.72;4.93;;;23.70;36.50;;;;;;6150271;28;80839;-70
2022/03/15 05:02:03;;;;;;;8.35;5.22;;;23.80;36.30;;;;;;6137283;28;81276;-70
2022/03/15 05:05:03;;;;;;;11.30;5.70;;;23.80;35.80;;;;;;6160773;28;80463;-73
2022/03/15 05:08:04;;;;;;;9.48;5.65;;;23.90;35.70;;;;;;6159995;28;80327;-68
2022/03/15 05:11:07;;;;;;;10.85;6.47;;;23.90;35.40;;;;;;6158559;28;88362;-70
2022/03/15 05:14:08;;;;;;;14.98;8.55;;;23.90;35.10;;;;;;6151311;28;80477;-67
2022/03/15 05:17:08;;;;;;;20.67;8.77;;;23.90;35.10;;;;;;6155002;28;80758;-68
2022/03/15 05:20:11;;;;;;;17.25;8.50;;;23.90;35.60;;;;;;6152091;28;80558;-66
2022/03/15 05:23:12;;;;;;;18.08;9.10;;;23.90;35.10;;;;;;6151183;28;80135;-67
2022/03/15 05:26:12;;;;;;;18.95;8.20;;;23.90;35.10;;;;;;6139409;28;80687;-71
2022/03/15 05:29:13;;;;;;;14.50;7.75;;;24.00;35.00;;;;;;6160300;28;80312;-68
2022/03/15 05:32:13;;;;;;;17.95;8.27;;;24.00;34.70;;;;;;6159895;28;80468;-74
2022/03/15 05:35:14;;;;;;;17.65;8.13;;;24.00;34.30;;;;;;6150976;28;80259;-67
2022/03/15 05:38:14;;;;;;;14.80;8.52;;;24.00;34.40;;;;;;6157805;28;82691;-68
2022/03/15 05:41:15;;;;;;;14.88;7.15;;;24.00;34.50;;;;;;6158372;28;80690;-73
2022/03/15 05:44:15;;;;;;;13.52;8.13;;;24.00;35.00;;;;;;6155463;28;80452;-68
2022/03/15 05:47:16;;;;;;;15.20;8.68;;;24.00;35.30;;;;;;6153824;28;80459;-67
2022/03/15 05:50:16;;;;;;;17.67;9.77;;;24.10;35.60;;;;;;6135201;28;80472;-67
2022/03/15 05:53:17;;;;;;;15.95;8.75;;;24.10;35.70;;;;;;6149378;28;81246;-67
2022/03/15 05:56:17;;;;;;;21.05;9.38;;;24.10;35.80;;;;;;6158038;28;80700;-68
2022/03/15 05:59:18;;;;;;;17.20;9.40;;;24.10;35.60;;;;;;6141208;28;80251;-68
2022/03/15 06:02:18;;;;;;;20.00;9.18;;;24.10;35.40;;;;;;6140269;28;81786;-69
2022/03/15 06:05:19;;;;;;;19.92;9.63;;;24.10;35.30;;;;;;6133635;28;80355;-68
2022/03/15 06:08:19;;;;;;;16.92;9.23;;;24.10;35.50;;;;;;6141700;28;81272;-73
2022/03/15 06:11:20;;;;;;;17.20;9.90;;;24.10;35.70;;;;;;6150755;28;80897;-68
2022/03/15 06:14:21;;;;;;;20.27;9.45;;;24.10;35.60;;;;;;6158702;28;80697;-66
2022/03/15 06:17:21;;;;;;;21.85;9.68;;;24.10;35.50;;;;;;6158619;28;80582;-67
2022/03/15 06:20:22;;;;;;;20.40;10.38;;;24.00;35.50;;;;;;6149060;28;80344;-67
2022/03/15 06:23:24;;;;;;;22.08;10.27;;;24.00;35.70;;;;;;6135335;28;83304;-72
2022/03/15 06:26:24;;;;;;;17.23;9.98;;;24.00;35.30;;;;;;6155342;28;83039;-78
2022/03/15 06:29:25;;;;;;;19.48;11.18;;;24.00;35.20;;;;;;6142586;28;83059;-76
2022/03/15 06:32:26;;;;;;;19.65;10.27;;;24.00;35.20;;;;;;6137508;28;83248;-74
2022/03/15 06:35:28;;;;;;;25.40;11.95;;;24.10;35.40;;;;;;6153197;28;83032;-72
2022/03/15 06:38:29;;;;;;;27.40;12.10;;;24.10;35.00;;;;;;6160761;28;84111;-69
2022/03/15 06:41:30;;;;;;;21.15;10.55;;;24.00;35.80;;;;;;6155169;28;85050;-71
2022/03/15 06:44:31;;;;;;;22.90;12.00;;;24.10;35.30;;;;;;6139860;28;84190;-68
2022/03/15 06:47:31;;;;;;;23.45;10.88;;;24.10;35.90;;;;;;6145171;28;83160;-68
2022/03/15 06:50:32;;;;;;;20.15;10.15;;;24.00;35.70;;;;;;6132032;28;82879;-69
2022/03/15 06:53:32;;;;;;;23.75;12.32;;;24.10;36.70;;;;;;6135721;28;83433;-69
2022/03/15 06:56:39;;;;;;;21.90;11.70;;;24.10;35.40;;;;;;6129998;28;84135;-70
2022/03/15 06:59:39;;;;;;;25.40;11.73;;;24.10;34.80;;;;;;6130234;28;84621;-71
2022/03/15 07:02:40;;;;;;;21.17;12.07;;;24.10;34.70;;;;;;6139908;28;83425;-70
2022/03/15 07:05:41;;;;;;;27.42;13.45;;;24.00;34.40;;;;;;6148039;28;83087;-70
2022/03/15 07:08:43;;;;;;;30.67;12.45;;;24.00;34.40;;;;;;6156607;28;84132;-70
2022/03/15 07:11:44;;;;;;;27.27;13.63;;;24.00;34.00;;;;;;6135033;28;83051;-70
2022/03/15 07:14:47;;;;;;;28.13;13.98;;;24.00;33.80;;;;;;6141505;28;83475;-70
2022/03/15 07:17:48;;;;;;;27.60;14.27;;;24.00;33.60;;;;;;6144569;28;86360;-70
2022/03/15 07:20:49;;;;;;;24.80;13.13;;;24.00;33.60;;;;;;6138277;28;83211;-70
2022/03/15 07:23:49;;;;;;;28.05;14.38;;;24.00;33.60;;;;;;6134089;28;83545;-69
2022/03/15 07:26:50;;;;;;;26.95;13.38;;;24.00;33.30;;;;;;6155294;28;83080;-70
2022/03/15 07:29:50;;;;;;;27.80;14.57;;;24.00;33.20;;;;;;6158143;28;83263;-70
2022/03/15 07:32:51;;;;;;;24.65;12.50;;;24.00;33.10;;;;;;6157798;28;83927;-70
2022/03/15 07:35:51;;;;;;;28.50;13.43;;;24.00;33.00;;;;;;6156431;28;84250;-71
2022/03/15 07:38:52;;;;;;;26.08;13.57;;;23.90;33.00;;;;;;6158731;28;83062;-70
2022/03/15 07:41:53;;;;;;;26.25;14.02;;;24.00;33.00;;;;;;6158334;28;83362;-70
2022/03/15 07:44:53;;;;;;;28.75;13.90;;;24.00;32.90;;;;;;6158223;28;83312;-70
2022/03/15 07:47:54;;;;;;;23.52;13.65;;;24.00;33.00;;;;;;6157730;28;84154;-70
2022/03/15 07:50:54;;;;;;;27.30;13.68;;;24.00;32.90;;;;;;6156423;28;84295;-68
2022/03/15 07:53:57;;;;;;;25.70;13.50;;;24.00;32.90;;;;;;6137774;28;84495;-69
2022/03/15 07:56:57;;;;;;;24.23;12.63;;;24.00;32.80;;;;;;6139848;28;83166;-69
2022/03/15 07:59:58;;;;;;;26.45;13.45;;;24.00;32.80;;;;;;6147364;28;84191;-68
2022/03/15 08:02:58;;;;;;;24.02;12.63;;;24.10;32.80;;;;;;6133674;28;84092;-68
2022/03/15 08:06:00;;;;;;;18.90;11.50;;;24.10;32.90;;;;;;6133724;28;84007;-69
2022/03/15 08:09:00;;;;;;;30.42;12.82;;;24.10;32.80;;;;;;6138186;28;84267;-69
2022/03/15 08:12:01;;;;;;;24.20;12.52;;;24.10;32.80;;;;;;6148055;28;83918;-68
2022/03/15 08:15:02;;;;;;;20.58;11.02;;;24.10;32.80;;;;;;6144592;28;84417;-68
2022/03/15 08:18:03;;;;;;;23.42;12.05;;;24.10;32.90;;;;;;6133935;28;83007;-68
2022/03/15 08:21:03;;;;;;;18.92;11.02;;;24.10;33.00;;;;;;6132409;28;83110;-68
2022/03/15 08:24:04;;;;;;;19.40;11.05;;;24.10;32.90;;;;;;6133229;28;84798;-68
2022/03/15 08:27:05;;;;;;;18.52;11.10;;;24.10;32.90;;;;;;6156738;28;83136;-68
2022/03/15 08:30:05;;;;;;;17.77;10.50;;;24.20;32.90;;;;;;6157754;28;83435;-69
2022/03/15 08:33:06;;;;;;;20.17;9.68;;;24.20;33.00;;;;;;6157967;28;83077;-69
2022/03/15 08:36:06;;;;;;;15.93;9.23;;;24.30;32.90;;;;;;6159236;28;81628;-69
2022/03/15 08:39:07;;;;;;;16.73;9.15;;;24.20;32.80;;;;;;6160299;28;81614;-69
2022/03/15 08:42:08;;;;;;;24.05;10.35;;;24.20;32.80;;;;;;6160209;28;81143;-69
2022/03/15 08:45:09;;;;;;;17.80;9.48;;;24.20;32.80;;;;;;6155357;28;83378;-69
2022/03/15 08:48:10;;;;;;;14.63;8.43;;;24.20;32.90;;;;;;6136066;28;83180;-69
2022/03/15 08:51:11;;;;;;;16.55;8.90;;;24.30;33.00;;;;;;6136190;28;80982;-69
2022/03/15 08:54:12;;;;;;;21.25;9.25;;;24.20;33.00;;;;;;6142597;28;81441;-69
2022/03/15 08:57:14;;;;;;;15.02;8.50;;;24.20;32.90;;;;;;6134839;28;82015;-68
2022/03/15 09:00:15;;;;;;;16.23;8.93;;;24.20;33.00;;;;;;6135971;28;82027;-71
2022/03/15 09:03:15;;;;;;;15.63;9.18;;;24.20;32.90;;;;;;6135710;28;80607;-71
2022/03/15 09:06:16;;;;;;;17.70;9.20;;;24.20;33.10;;;;;;6135616;28;82348;-70
2022/03/15 09:09:20;;;;;;;19.60;9.82;;;24.30;33.10;;;;;;6159297;28;81803;-70
2022/03/15 09:12:21;;;;;;;16.73;8.95;;;24.30;33.10;;;;;;6159455;28;81273;-70
2022/03/15 09:15:22;;;;;;;14.05;8.15;;;24.30;33.20;;;;;;6159937;28;81521;-71
2022/03/15 09:18:26;;;;;;;13.45;8.45;;;24.30;33.20;;;;;;6159529;28;80484;-70
2022/03/15 09:21:26;;;;;;;12.13;7.47;;;24.40;33.20;;;;;;6159717;28;81551;-70
2022/03/15 09:24:27;;;;;;;12.60;7.43;;;24.40;33.20;;;;;;6159989;28;81599;-70
2022/03/15 09:27:27;;;;;;;12.82;7.63;;;24.40;33.20;;;;;;6148589;28;81206;-69
2022/03/15 09:30:30;;;;;;;14.25;8.43;;;24.50;33.20;;;;;;6135372;28;80894;-69
2022/03/15 09:33:31;;;;;;;12.05;7.28;;;24.50;33.30;;;;;;6136602;28;81388;-71
2022/03/15 09:36:31;;;;;;;11.65;7.25;;;24.50;33.40;;;;;;6151693;28;81640;-71
2022/03/15 09:39:32;;;;;;;13.05;7.60;;;24.60;33.40;;;;;;6159406;28;81550;-71
2022/03/15 09:42:33;;;;;;;12.50;7.53;;;24.60;33.40;;;;;;6159127;28;81746;-68
2022/03/15 09:45:34;;;;;;;11.23;6.90;;;24.70;33.40;;;;;;6146514;28;81975;-68
2022/03/15 09:48:34;;;;;;;11.23;6.82;;;24.70;33.30;;;;;;6146958;28;80619;-68
2022/03/15 09:51:35;;;;;;;12.63;7.38;;;24.70;33.40;;;;;;6146577;28;81426;-70
2022/03/15 09:54:35;;;;;;;10.35;7.10;;;24.80;33.30;;;;;;6158102;28;80637;-70
2022/03/15 09:57:36;;;;;;;12.02;7.15;;;24.80;33.40;;;;;;6157927;28;83227;-70
2022/03/15 10:00:37;;;;;;;10.45;7.05;;;24.80;33.40;;;;;;6157447;28;80821;-70
2022/03/15 10:03:39;;;;;;;14.18;7.05;;;24.90;33.40;;;;;;6159144;28;80372;-68
2022/03/15 10:06:39;;;;;;;10.93;6.50;;;24.90;33.30;;;;;;6144609;28;80546;-68
2022/03/15 10:09:40;;;;;;;9.95;5.97;;;24.90;33.40;;;;;;6134366;28;81667;-70
2022/03/15 10:12:40;;;;;;;9.23;6.05;;;24.90;33.40;;;;;;6151017;28;80611;-70
2022/03/15 10:15:41;;;;;;;9.88;6.55;;;24.90;33.60;;;;;;6158584;28;81994;-68
2022/03/15 10:18:42;;;;;;;12.10;6.70;;;24.90;33.40;;;;;;6145492;28;80304;-67
2022/03/15 10:21:44;;;;;;;9.90;6.50;;;25.00;33.60;;;;;;6158688;28;80061;-70
2022/03/15 10:24:46;;;;;;;11.52;6.82;;;25.00;33.50;;;;;;6152431;28;80803;-70
2022/03/15 10:27:46;;;;;;;9.65;5.95;;;25.00;33.50;;;;;;6135025;28;80413;-70
2022/03/15 10:30:47;;;;;;;11.52;6.60;;;25.00;33.50;;;;;;6134549;28;80655;-71
2022/03/15 10:33:47;;;;;;;9.60;6.05;;;25.10;33.60;;;;;;6157303;28;81009;-68
2022/03/15 10:36:48;;;;;;;12.55;6.40;;;25.00;33.50;;;;;;6135378;28;80507;-69
2022/03/15 10:39:49;;;;;;;9.68;6.20;;;25.00;33.50;;;;;;6133459;28;81719;-69
2022/03/15 10:42:49;;;;;;;8.27;5.65;;;25.10;33.60;;;;;;6160034;28;80144;-71
2022/03/15 10:45:57;;;;;;;10.15;6.20;;;25.10;33.70;;;;;;6154872;28;80187;-70
2022/03/15 10:48:57;;;;;;;11.07;6.55;;;25.10;33.70;;;;;;6138300;28;80988;-70
2022/03/15 10:51:58;;;;;;;8.55;5.95;;;25.10;33.70;;;;;;6147040;28;80203;-68
2022/03/15 10:54:58;;;;;;;9.27;6.03;;;25.10;33.60;;;;;;6144726;28;81057;-70
2022/03/15 10:57:59;;;;;;;9.07;5.70;;;25.10;33.40;;;;;;6158282;28;80313;-70
2022/03/15 11:01:00;;;;;;;11.90;6.00;;;25.10;33.60;;;;;;6155420;28;81323;-68
2022/03/15 11:04:00;;;;;;;10.50;6.07;;;25.10;33.60;;;;;;6157504;28;80698;-70
2022/03/15 11:07:01;;;;;;;8.02;5.57;;;25.10;33.60;;;;;;6138444;28;80385;-68
2022/03/15 11:10:16;;;;;;;10.97;5.13;;;25.20;33.60;;;;;;6151291;28;83256;-70
2022/03/15 11:13:17;;;;;;;12.23;6.13;;;25.10;33.60;;;;;;6162615;28;81208;-70
2022/03/15 11:16:18;;;;;;;9.88;5.80;;;25.20;33.50;;;;;;6161924;28;80331;-70
2022/03/15 11:19:18;;;;;;;8.82;5.32;;;25.20;33.50;;;;;;6156912;28;80894;-70
2022/03/15 11:22:20;;;;;;;9.52;5.80;;;25.20;33.60;;;;;;6138103;28;80881;-70
2022/03/15 11:25:21;;;;;;;8.77;5.65;;;25.20;33.70;;;;;;6144038;28;85024;-70
2022/03/15 11:28:21;;;;;;;9.00;5.80;;;25.20;33.70;;;;;;6149746;28;80380;-71
2022/03/15 11:31:22;;;;;;;7.35;4.80;;;25.30;33.80;;;;;;6152499;28;80744;-70
2022/03/15 11:34:23;;;;;;;9.27;6.00;;;25.20;33.80;;;;;;6148787;28;80296;-69
2022/03/15 11:37:23;;;;;;;7.75;5.18;;;25.30;34.00;;;;;;6162056;28;80665;-70
2022/03/15 11:40:24;;;;;;;7.15;5.10;;;25.30;33.80;;;;;;6142699;28;81659;-70
2022/03/15 11:43:24;;;;;;;7.68;5.32;;;25.30;33.80;;;;;;6152323;28;82380;-70
2022/03/15 11:46:25;;;;;;;9.02;5.40;;;25.30;33.90;;;;;;6137510;28;81490;-69
2022/03/15 11:49:27;;;;;;;8.77;5.53;;;25.30;34.00;;;;;;6137534;28;81432;-69
2022/03/15 11:52:27;;;;;;;9.20;5.38;;;25.30;34.00;;;;;;6145264;28;80408;-69
2022/03/15 11:55:29;;;;;;;7.35;4.90;;;25.30;33.90;;;;;;6158146;28;80405;-69
2022/03/15 11:58:30;;;;;;;8.30;5.05;;;25.30;33.90;;;;;;6159810;28;81681;-69
2022/03/15 12:01:33;;;;;;;7.43;5.00;;;25.30;34.50;;;;;;6144865;28;80422;-70
2022/03/15 12:04:35;;;;;;;7.22;5.05;;;25.40;33.80;;;;;;6161148;28;80974;-70
2022/03/15 12:08:12;;;;;;;7.07;4.68;;;25.40;34.00;;;;;;6140268;28;80359;-70
2022/03/15 12:11:02;;;;;;;;;;;25.40;33.80;;;;;;6145636;28;80365;-70
2022/03/15 12:14:04;;;;;;;7.82;4.93;;;25.40;33.90;;;;;;6143479;28;80392;-70
2022/03/15 12:17:05;;;;;;;7.95;5.22;;;25.40;33.80;;;;;;6150391;28;80399;-70
2022/03/15 12:20:06;;;;;;;7.28;4.82;;;25.40;33.80;;;;;;6160295;28;80747;-70
2022/03/15 12:23:07;;;;;;;7.53;5.18;;;25.40;34.00;;;;;;6140613;28;80815;-70
2022/03/15 12:26:08;;;;;;;7.63;4.85;;;25.40;33.90;;;;;;6159595;28;80220;-70
2022/03/15 12:29:14;;;;;;;8.20;4.70;;;25.40;34.10;;;;;;6161481;28;80419;-70
2022/03/15 12:32:17;;;;;;;9.48;4.35;;;25.40;33.90;;;;;;6149405;28;80909;-70
2022/03/15 12:35:18;;;;;;;7.38;4.78;;;25.40;33.80;;;;;;6155232;28;81771;-70
2022/03/15 12:38:18;;;;;;;7.25;4.70;;;25.40;33.90;;;;;;6159253;28;80961;-70
2022/03/15 12:41:19;;;;;;;8.93;5.28;;;25.50;34.00;;;;;;6136556;28;80210;-70
2022/03/15 12:44:19;;;;;;;7.25;4.85;;;25.40;33.70;;;;;;6157409;28;80700;-70
2022/03/15 12:47:20;;;;;;;7.25;4.30;;;25.50;33.90;;;;;;6159931;28;81884;-70
2022/03/15 12:50:21;;;;;;;10.95;4.75;;;25.50;33.80;;;;;;6160317;28;81050;-68
2022/03/15 12:53:24;;;;;;;6.50;4.47;;;25.50;34.00;;;;;;6158502;28;84715;-69
2022/03/15 12:56:24;;;;;;;10.20;4.80;;;25.40;34.20;;;;;;6160319;28;84394;-68
2022/03/15 12:59:25;;;;;;;9.32;5.97;;;25.40;33.30;;;;;;6160879;28;80547;-70
2022/03/15 13:02:26;;;;;;;8.45;5.93;;;25.50;33.20;;;;;;6150910;28;80980;-69
2022/03/15 13:05:27;;;;;;;9.68;5.55;;;25.50;32.70;;;;;;6147495;28;81201;-70
2022/03/15 13:08:27;;;;;;;10.27;6.00;;;25.40;32.60;;;;;;6153398;28;80522;-67
2022/03/15 13:11:28;;;;;;;10.77;6.20;;;25.40;32.40;;;;;;6144156;28;80419;-69
2022/03/15 13:14:32;;;;;;;9.25;5.82;;;25.40;32.00;;;;;;6141518;28;80426;-68
2022/03/15 13:17:34;;;;;;;11.23;6.90;;;25.40;32.40;;;;;;6157999;28;81120;-68
2022/03/15 13:20:35;;;;;;;9.63;6.38;;;25.40;31.10;;;;;;6140389;28;80539;-69
2022/03/15 13:23:37;;;;;;;8.30;5.88;;;25.40;31.00;;;;;;6147632;28;80631;-69
2022/03/15 13:26:41;;;;;;;10.52;6.43;;;25.40;31.50;;;;;;6138479;28;80745;-68
2022/03/15 13:29:41;;;;;;;8.38;6.15;;;25.40;31.40;;;;;;6160479;28;80437;-69
2022/03/15 13:32:42;;;;;;;8.90;6.03;;;25.40;31.20;;;;;;6160374;28;80464;-69
2022/03/15 13:35:42;;;;;;;10.05;6.70;;;25.40;30.40;;;;;;6160676;28;80718;-69
2022/03/15 13:38:44;;;;;;;12.32;6.97;;;25.40;30.30;;;;;;6160015;28;80896;-69
2022/03/15 13:41:49;;;;;;;11.82;6.57;;;25.40;30.00;;;;;;6159906;28;84098;-69
2022/03/15 13:44:50;;;;;;;11.27;6.88;;;25.40;30.00;;;;;;6137546;28;80561;-69
2022/03/15 13:47:52;;;;;;;10.93;7.20;;;25.40;30.20;;;;;;6146403;28;81936;-69
2022/03/15 13:50:56;;;;;;;11.43;6.47;;;25.40;30.00;;;;;;6160188;28;80154;-68
2022/03/15 13:53:56;;;;;;;9.50;6.60;;;25.40;30.00;;;;;;6150821;28;80282;-68
2022/03/15 13:56:57;;;;;;;9.63;6.80;;;25.30;29.80;;;;;;6135669;28;80458;-69
2022/03/15 13:59:58;;;;;;;10.45;6.80;;;25.30;29.90;;;;;;6135473;28;80339;-69
2022/03/15 14:03:02;;;;;;;11.25;7.93;;;25.30;29.80;;;;;;6139928;28;80895;-68
2022/03/15 14:06:02;;;;;;;11.43;6.70;;;25.30;29.80;;;;;;6135137;28;80474;-68
2022/03/15 14:09:04;;;;;;;16.25;7.80;;;25.30;29.30;;;;;;6148676;28;80627;-69
2022/03/15 14:12:07;;;;;;;11.68;7.25;;;25.30;29.90;;;;;;6158870;28;80445;-67
2022/03/15 14:15:08;;;;;;;15.75;8.10;;;25.30;29.40;;;;;;6158815;28;80501;-68
2022/03/15 14:18:09;;;;;;;14.18;8.60;;;25.20;29.60;;;;;;6158278;28;80594;-66
2022/03/15 14:21:10;;;;;;;13.20;7.60;;;25.10;29.70;;;;;;6157212;28;80292;-71
2022/03/15 14:24:10;;;;;;;13.23;7.25;;;25.10;29.60;;;;;;6152872;28;80304;-71
2022/03/15 14:27:11;;;;;;;11.85;8.25;;;25.10;29.70;;;;;;6136489;28;81406;-70
2022/03/15 14:30:14;;;;;;;14.80;8.25;;;25.10;29.50;;;;;;6159395;28;80901;-70
2022/03/15 14:33:17;;;;;;;14.43;7.70;;;25.00;29.40;;;;;;6153397;28;80476;-70
2022/03/15 14:36:17;;;;;;;16.92;8.25;;;25.00;29.90;;;;;;6156302;28;80479;-69
2022/03/15 14:39:19;;;;;;;14.75;8.00;;;25.00;29.20;;;;;;6158199;28;80807;-69
2022/03/15 14:42:19;;;;;;;14.27;8.55;;;24.90;29.00;;;;;;6154092;28;81210;-69
2022/03/15 14:45:20;;;;;;;10.82;7.47;;;24.90;29.00;;;;;;6159014;28;80491;-70
2022/03/15 14:48:21;;;;;;;10.50;7.78;;;24.90;28.90;;;;;;6159786;28;80940;-71
2022/03/15 14:51:24;;;;;;;15.07;7.57;;;24.90;28.90;;;;;;6158873;28;80238;-79
2022/03/15 14:54:24;;;;;;;17.05;7.25;;;24.80;29.10;;;;;;6158562;28;80560;-69
2022/03/15 14:57:26;;;;;;;13.20;7.72;;;24.80;29.40;;;;;;6144037;28;80554;-70
2022/03/15 15:00:27;;;;;;;12.30;7.18;;;24.80;29.40;;;;;;6156508;28;81653;-70
2022/03/15 15:03:30;;;;;;;23.33;12.57;;;24.80;29.60;;;;;;6147455;28;80276;-71
2022/03/15 15:06:30;;;;;;;60.08;29.02;;;24.80;29.40;;;;;;6151091;28;83122;-70
2022/03/15 15:09:31;;;;;;;78.95;39.67;;;24.80;29.50;;;;;;6152331;28;84522;-68
2022/03/15 15:12:31;;;;;;;183.75;91.25;;;24.80;29.30;;;;;;6147259;28;83110;-69
2022/03/15 15:15:37;;;;;;;161.50;79.32;;;24.80;29.60;;;;;;6139687;28;84282;-68
2022/03/15 15:18:41;;;;;;;145.98;73.80;;;24.80;29.60;;;;;;6131503;28;83009;-69
2022/03/15 15:21:43;;;;;;;139.57;68.65;;;24.80;29.50;;;;;;6138741;28;83361;-68
2022/03/15 15:24:46;;;;;;;178.75;86.05;;;24.70;29.50;;;;;;6144296;28;83138;-67
2022/03/15 15:27:47;;;;;;;191.38;94.20;;;24.80;29.50;;;;;;6155500;28;83038;-69
2022/03/15 15:30:48;;;;;;;174.70;81.30;;;24.70;29.50;;;;;;6159509;28;83349;-72